createdAt,value
2018-07-11T00:01:46.945Z,21.20
2018-07-11T00:06:42.663Z,22.50
2018-07-11T00:11:37.884Z,21.17
2018-07-11T00:16:33.121Z,21.83
2018-07-11T00:21:28.941Z,22.30
2018-07-11T00:26:25.158Z,21.93
2018-07-11T00:31:20.357Z,22.77
2018-07-11T00:36:15.909Z,21.93
2018-07-11T00:41:11.693Z,21.17
2018-07-11T00:46:08.095Z,24.10
2018-07-11T00:51:05.193Z,23.40
2018-07-11T00:56:03.168Z,25.77
2018-07-11T01:01:07.629Z,22.93
2018-07-11T01:06:03.274Z,23.37
2018-07-11T01:11:04.133Z,24.20
2018-07-11T01:15:59.929Z,24.77
2018-07-11T01:20:56.026Z,23.10
2018-07-11T01:25:51.577Z,22.90
2018-07-11T01:30:48.052Z,22.80
2018-07-11T01:35:43.499Z,26.23
2018-07-11T01:40:39.202Z,27.43
2018-07-11T01:45:36.271Z,26.93
2018-07-11T01:50:33.001Z,30.27
2018-07-11T01:55:29.128Z,28.67
2018-07-11T02:00:25.229Z,31.83
2018-07-11T02:05:20.824Z,31.77
2018-07-11T02:10:17.250Z,31.60
2018-07-11T02:15:14.003Z,30.20
2018-07-11T02:20:17.474Z,32.40
2018-07-11T02:25:14.786Z,35.00
2018-07-11T02:30:10.560Z,32.23
2018-07-11T02:35:07.457Z,30.00
2018-07-11T02:40:03.649Z,34.03
2018-07-11T02:44:59.306Z,31.57
2018-07-11T02:50:03.216Z,35.30
2018-07-11T02:55:01.209Z,35.83
2018-07-11T02:59:57.884Z,40.73
2018-07-11T03:04:54.944Z,37.37
2018-07-11T03:09:50.685Z,38.67
2018-07-11T03:14:51.161Z,38.90
2018-07-11T03:19:46.670Z,39.07
2018-07-11T03:24:42.709Z,38.33
2018-07-11T03:29:38.304Z,39.23
2018-07-11T03:34:34.013Z,37.07
2018-07-11T03:39:29.762Z,36.23
2018-07-11T03:44:25.805Z,31.37
2018-07-11T03:49:21.818Z,36.90
2018-07-11T03:54:18.022Z,44.80
2018-07-11T03:59:14.153Z,56.77
2018-07-11T04:04:09.758Z,43.40
2018-07-11T04:09:05.476Z,48.93
2018-07-11T04:14:00.820Z,35.57
2018-07-11T04:18:56.980Z,41.00
2018-07-11T04:23:52.601Z,49.10
2018-07-11T04:28:48.312Z,46.07
2018-07-11T04:33:43.508Z,50.10
2018-07-11T04:38:39.226Z,50.50
2018-07-11T04:43:35.046Z,50.30
2018-07-11T04:48:31.031Z,55.83
2018-07-11T04:53:27.739Z,55.30
2018-07-11T04:58:24.320Z,58.40
2018-07-11T05:03:20.813Z,54.53
2018-07-11T05:08:16.065Z,45.23
2018-07-11T05:13:12.646Z,49.63
2018-07-11T05:18:08.197Z,51.97
2018-07-11T05:23:04.906Z,49.97
2018-07-11T05:28:07.220Z,44.13
2018-07-11T05:33:04.958Z,48.47
2018-07-11T05:38:00.845Z,48.43
2018-07-11T05:42:57.035Z,43.73
2018-07-11T05:47:52.762Z,43.73
2018-07-11T05:52:48.618Z,43.73
2018-07-11T05:57:44.395Z,37.03
2018-07-11T06:02:39.400Z,44.63
2018-07-11T06:07:35.599Z,33.50
2018-07-11T06:12:33.291Z,31.90
2018-07-11T06:17:30.307Z,30.73
2018-07-11T06:22:26.968Z,29.43
2018-07-11T06:27:23.787Z,28.37
2018-07-11T06:32:19.535Z,29.27
2018-07-11T06:37:15.700Z,30.83
2018-07-11T06:42:11.655Z,29.83
2018-07-11T06:47:12.654Z,30.93
2018-07-11T06:52:08.686Z,30.60
2018-07-11T06:57:08.373Z,29.23
2018-07-11T07:02:07.916Z,24.77
2018-07-11T07:07:06.617Z,23.87
2018-07-11T07:12:04.255Z,21.00
2018-07-11T07:17:01.565Z,23.93
2018-07-11T07:21:56.743Z,23.93
2018-07-11T07:26:52.126Z,20.43
2018-07-11T07:31:48.282Z,18.50
2018-07-11T07:36:45.075Z,16.00
2018-07-11T07:41:40.339Z,16.50
2018-07-11T07:46:37.097Z,12.50
2018-07-11T07:51:33.772Z,9.93
2018-07-11T07:56:29.538Z,11.83
2018-07-11T08:01:25.514Z,13.63
2018-07-11T08:06:21.536Z,11.90
2018-07-11T08:11:21.006Z,8.03
2018-07-11T08:16:18.160Z,8.87
2018-07-11T08:21:14.154Z,9.07
2018-07-11T08:26:20.499Z,4.87
2018-07-11T08:31:28.070Z,4.90
2018-07-11T08:37:34.751Z,4.90
2018-07-11T08:42:56.210Z,5.03
2018-07-11T08:50:04.061Z,4.57
2018-07-11T08:55:42.422Z,6.07
2018-07-11T09:00:55.880Z,6.60
2018-07-11T09:07:05.893Z,4.47
2018-07-11T09:16:21.309Z,4.83
2018-07-11T09:23:32.484Z,4.43
2018-07-11T09:28:28.131Z,2.97
2018-07-11T09:33:24.424Z,6.53
2018-07-11T09:38:20.000Z,4.80
2018-07-11T09:43:15.850Z,10.10
2018-07-11T09:48:11.549Z,3.97
2018-07-11T09:53:07.662Z,4.77
2018-07-11T09:58:04.858Z,4.17
2018-07-11T10:03:00.978Z,4.97
2018-07-11T10:07:57.829Z,4.80
2018-07-11T10:12:54.296Z,5.77
2018-07-11T10:17:50.498Z,6.27
2018-07-11T10:22:46.508Z,3.60
2018-07-11T10:27:44.050Z,3.90
2018-07-11T10:32:40.104Z,4.03
2018-07-11T10:37:35.127Z,5.90
2018-07-11T10:42:31.195Z,3.47
2018-07-11T10:47:27.840Z,3.50
2018-07-11T10:52:25.179Z,4.03
2018-07-11T10:57:21.965Z,2.20
2018-07-11T11:02:22.202Z,2.87
2018-07-11T11:07:17.143Z,2.13
2018-07-11T11:12:12.725Z,3.17
2018-07-11T11:17:09.985Z,2.60
2018-07-11T11:22:10.487Z,2.63
2018-07-11T11:27:09.096Z,1.83
2018-07-11T11:32:07.709Z,2.00
2018-07-11T11:37:05.988Z,2.00
2018-07-11T11:42:03.598Z,3.20
2018-07-11T11:47:04.466Z,2.30
2018-07-11T11:51:59.973Z,3.13
2018-07-11T11:56:55.741Z,2.13
2018-07-11T12:01:51.923Z,4.00
2018-07-11T12:06:48.887Z,2.97
2018-07-11T12:11:44.453Z,2.83
2018-07-11T12:16:39.991Z,5.00
2018-07-11T12:21:39.761Z,4.03
2018-07-11T12:26:35.811Z,2.80
2018-07-11T12:31:32.329Z,2.13
2018-07-11T12:36:28.941Z,7.23
2018-07-11T12:41:25.271Z,4.77
2018-07-11T12:46:22.152Z,3.33
2018-07-11T12:51:18.852Z,5.63
2018-07-11T12:56:15.338Z,4.37
2018-07-11T13:01:10.901Z,5.57
2018-07-11T13:06:07.072Z,5.10
2018-07-11T13:11:03.917Z,5.03
2018-07-11T13:15:59.933Z,5.03
2018-07-11T13:20:55.654Z,5.23
2018-07-11T13:25:51.545Z,6.27
2018-07-11T13:30:47.542Z,5.07
2018-07-11T13:35:43.557Z,4.07
2018-07-11T13:40:39.292Z,4.70
2018-07-11T13:45:34.956Z,4.83
2018-07-11T13:50:31.721Z,5.37
2018-07-11T13:55:27.575Z,4.90
2018-07-11T14:00:23.136Z,4.40
2018-07-11T14:05:19.554Z,5.53
2018-07-11T14:10:15.049Z,8.43
2018-07-11T14:15:11.186Z,6.93
2018-07-11T14:20:08.043Z,8.97
2018-07-11T14:25:05.362Z,7.70
2018-07-11T14:30:01.974Z,9.63
2018-07-11T14:34:59.310Z,5.40
2018-07-11T14:39:55.306Z,6.03
2018-07-11T14:44:50.885Z,4.27
2018-07-11T14:49:46.792Z,2.13
2018-07-11T14:54:42.601Z,3.53
2018-07-11T14:59:38.239Z,2.23
2018-07-11T15:04:34.978Z,2.40
2018-07-11T15:09:30.643Z,5.67
2018-07-11T15:14:26.508Z,2.43
2018-07-11T15:19:24.493Z,1.87
2018-07-11T15:24:20.530Z,2.40
2018-07-11T15:29:16.624Z,10.57
2018-07-11T15:34:19.285Z,2.50
2018-07-11T15:39:16.693Z,2.93
2018-07-11T15:44:13.123Z,2.20
2018-07-11T15:49:10.571Z,3.60
2018-07-11T15:54:06.531Z,4.07
2018-07-11T15:59:07.480Z,2.50
2018-07-11T16:04:03.204Z,4.47
2018-07-11T16:09:01.660Z,3.57
2018-07-11T16:13:57.067Z,3.97
2018-07-11T16:18:52.825Z,4.83
2018-07-11T16:23:48.590Z,2.70
2018-07-11T16:28:44.294Z,4.93
2018-07-11T16:33:40.206Z,4.23
2018-07-11T16:38:37.219Z,4.57
2018-07-11T16:43:34.037Z,3.50
2018-07-11T16:48:29.302Z,4.17
2018-07-11T16:53:24.916Z,2.93
2018-07-11T16:58:27.008Z,7.03
2018-07-11T17:03:22.791Z,4.63
2018-07-11T17:08:38.638Z,2.07
2018-07-11T17:13:34.475Z,3.23
2018-07-11T17:18:47.639Z,6.17
2018-07-11T17:23:53.961Z,2.00
2018-07-11T17:28:49.914Z,3.70
2018-07-11T17:33:45.817Z,4.20
2018-07-11T17:38:41.589Z,3.37
2018-07-11T17:43:40.698Z,2.70
2018-07-11T17:49:49.176Z,4.73
2018-07-11T17:54:59.218Z,3.43
2018-07-11T18:00:06.355Z,2.30
2018-07-11T18:05:15.520Z,3.40
2018-07-11T18:10:12.808Z,2.00
2018-07-11T18:17:20.868Z,2.70
2018-07-11T18:23:29.983Z,2.80
2018-07-11T18:28:38.829Z,3.77
2018-07-11T18:34:43.570Z,2.77
2018-07-11T18:39:49.837Z,3.47
2018-07-11T18:44:56.313Z,2.70
2018-07-11T18:52:06.801Z,2.27
2018-07-11T18:57:10.083Z,2.97
2018-07-11T19:02:21.751Z,2.93
2018-07-11T19:07:20.087Z,4.23
2018-07-11T19:12:41.467Z,6.23
2018-07-11T19:18:17.471Z,8.13
2018-07-11T19:23:53.999Z,3.60
2018-07-11T19:29:27.183Z,5.90
2018-07-11T19:34:30.053Z,4.87
2018-07-11T19:39:44.138Z,4.67
2018-07-11T19:44:50.643Z,3.97
2018-07-11T19:49:52.234Z,5.33
2018-07-11T19:54:57.176Z,4.20
2018-07-11T19:59:52.563Z,5.20
2018-07-11T20:04:48.690Z,5.27
2018-07-11T20:09:46.954Z,5.10
2018-07-11T20:14:44.430Z,5.30
2018-07-11T20:19:41.287Z,5.57
2018-07-11T20:24:37.694Z,6.77
2018-07-11T20:29:33.071Z,8.00
2018-07-11T20:34:29.237Z,8.23
2018-07-11T20:39:24.517Z,10.80
2018-07-11T20:44:20.440Z,7.60
2018-07-11T20:49:21.773Z,6.93
2018-07-11T20:54:17.590Z,7.03
2018-07-11T20:59:23.942Z,6.27
2018-07-11T21:05:05.735Z,23.07
2018-07-11T21:10:19.444Z,6.60
2018-07-11T21:17:35.008Z,8.17
2018-07-11T21:22:32.809Z,6.57
2018-07-11T21:27:33.472Z,5.83
2018-07-11T21:32:28.992Z,5.83
2018-07-11T21:37:26.124Z,7.17
2018-07-11T21:42:21.986Z,6.70
2018-07-11T21:47:17.974Z,7.60
2018-07-11T21:52:14.448Z,6.23
2018-07-11T21:57:10.267Z,8.60
2018-07-11T22:02:08.433Z,16.73
2018-07-11T22:07:07.249Z,6.70
2018-07-11T22:12:04.057Z,7.13
2018-07-11T22:17:05.263Z,6.20
2018-07-11T22:21:59.113Z,7.67
2018-07-11T22:26:52.918Z,6.43
2018-07-11T22:31:46.810Z,9.03
2018-07-11T22:36:40.592Z,8.00
2018-07-11T22:41:34.206Z,10.83
2018-07-11T22:46:27.842Z,12.00
2018-07-11T22:51:21.472Z,7.43
2018-07-11T22:56:15.200Z,9.07
2018-07-11T23:01:08.660Z,12.23
2018-07-11T23:06:03.175Z,15.57
2018-07-11T23:10:56.603Z,14.23
2018-07-11T23:15:50.267Z,16.27
2018-07-11T23:20:43.808Z,12.87
2018-07-11T23:25:38.578Z,13.37
2018-07-11T23:30:32.284Z,10.23
2018-07-11T23:35:26.924Z,9.00
2018-07-11T23:40:20.715Z,11.13
2018-07-11T23:45:14.436Z,11.80
2018-07-11T23:50:07.794Z,10.37
2018-07-11T23:55:01.667Z,11.93
2018-07-11T23:59:55.707Z,11.57
